createdAt,value
2018-11-27T00:01:43.639Z,100986.23
2018-11-27T00:04:12.047Z,100992.92
2018-11-27T00:07:11.426Z,100987.27
2018-11-27T00:09:39.894Z,100995.52
2018-11-27T00:12:12.517Z,100997.22
2018-11-27T00:14:41.105Z,100999.36
2018-11-27T00:17:11.559Z,101001.56
2018-11-27T00:19:40.054Z,100998.11
2018-11-27T00:22:08.845Z,100989.37
2018-11-27T00:24:37.486Z,100993.28
2018-11-27T00:27:12.366Z,100993.73
2018-11-27T00:29:40.835Z,100994.12
2018-11-27T00:32:09.306Z,100994.50
2018-11-27T00:34:38.048Z,100988.80
2018-11-27T00:37:06.503Z,100992.69
2018-11-27T00:39:35.157Z,101006.17
2018-11-27T00:42:03.596Z,101007.05
2018-11-27T00:44:37.788Z,101008.84
2018-11-27T00:47:07.145Z,101004.98
2018-11-27T00:49:39.426Z,101009.78
2018-11-27T00:52:07.966Z,101018.44
2018-11-27T00:54:36.822Z,101012.79
2018-11-27T00:57:05.247Z,101017.14
2018-11-27T00:59:33.893Z,101016.70
2018-11-27T01:02:02.519Z,101021.84
2018-11-27T01:04:35.827Z,101024.45
2018-11-27T01:07:04.277Z,101024.95
2018-11-27T01:09:32.720Z,101025.88
2018-11-27T01:12:01.233Z,101028.12
2018-11-27T01:15:01.548Z,101022.94
2018-11-27T01:17:31.059Z,101035.49
2018-11-27T01:19:59.480Z,101032.88
2018-11-27T01:22:27.972Z,101031.09
2018-11-27T01:25:01.260Z,101038.84
2018-11-27T01:27:29.924Z,101033.28
2018-11-27T01:29:58.388Z,101038.08
2018-11-27T01:35:01.641Z,101037.55
2018-11-27T01:37:30.028Z,101037.61
2018-11-27T01:39:58.546Z,101036.77
2018-11-27T01:42:31.407Z,101039.73
2018-11-27T01:45:00.970Z,101046.28
2018-11-27T01:47:29.363Z,101046.31
2018-11-27T01:49:57.794Z,101045.87
2018-11-27T01:52:26.265Z,101044.57
2018-11-27T01:54:54.730Z,101043.27
2018-11-27T01:57:23.195Z,101046.69
2018-11-27T01:59:51.653Z,101037.50
2018-11-27T02:02:20.097Z,101037.06
2018-11-27T02:05:53.682Z,101037.50
2018-11-27T02:08:22.201Z,101037.06
2018-11-27T02:10:50.759Z,101036.23
2018-11-27T02:13:19.247Z,101029.78
2018-11-27T02:15:47.905Z,101031.09
2018-11-27T02:18:16.322Z,101032.03
2018-11-27T02:20:45.009Z,101032.31
2018-11-27T02:23:13.419Z,101034.02
2018-11-27T02:25:41.832Z,101036.70
2018-11-27T02:28:10.285Z,101039.27
2018-11-27T02:30:38.910Z,101031.84
2018-11-27T02:33:12.082Z,101031.83
2018-11-27T02:35:40.648Z,101035.16
2018-11-27T02:38:09.042Z,101026.52
2018-11-27T02:40:37.474Z,101032.51
2018-11-27T02:45:57.903Z,101032.18
2018-11-27T02:48:26.397Z,101035.66
2018-11-27T02:50:54.829Z,101038.30
2018-11-27T02:53:28.170Z,101030.94
2018-11-27T02:55:59.509Z,101030.45
2018-11-27T02:58:28.031Z,101035.22
2018-11-27T03:00:56.539Z,101035.16
2018-11-27T03:03:25.121Z,101038.16
2018-11-27T03:05:53.575Z,101038.22
2018-11-27T03:08:22.678Z,101038.30
2018-11-27T03:11:26.707Z,101048.23
2018-11-27T03:13:55.218Z,101045.20
2018-11-27T03:16:23.812Z,101050.44
2018-11-27T03:18:52.216Z,101048.29
2018-11-27T03:21:20.813Z,101048.75
2018-11-27T03:23:49.345Z,101053.50
2018-11-27T03:26:17.929Z,101050.47
2018-11-27T03:28:46.415Z,101052.12
2018-11-27T03:31:14.818Z,101045.94
2018-11-27T03:33:46.260Z,101041.17
2018-11-27T03:36:14.710Z,101050.72
2018-11-27T03:38:43.262Z,101052.01
2018-11-27T03:41:11.686Z,101050.72
2018-11-27T03:43:40.165Z,101061.09
2018-11-27T03:46:09.732Z,101055.08
2018-11-27T03:48:38.169Z,101067.54
2018-11-27T03:51:06.603Z,101068.27
2018-11-27T03:53:35.254Z,101077.76
2018-11-27T03:56:03.743Z,101072.58
2018-11-27T03:58:32.160Z,101073.96
2018-11-27T04:01:01.592Z,101075.31
2018-11-27T04:03:30.064Z,101073.70
2018-11-27T04:05:58.466Z,101077.97
2018-11-27T04:08:26.871Z,101083.59
2018-11-27T04:10:55.954Z,101079.33
2018-11-27T04:13:24.375Z,101081.09
2018-11-27T04:15:52.850Z,101081.53
2018-11-27T04:18:21.242Z,101091.02
2018-11-27T04:20:49.718Z,101092.64
2018-11-27T04:23:18.263Z,101093.02
2018-11-27T04:25:46.815Z,101090.91
2018-11-27T04:28:18.158Z,101094.41
2018-11-27T04:30:46.772Z,101087.98
2018-11-27T04:33:15.491Z,101098.39
2018-11-27T04:35:43.886Z,101097.13
2018-11-27T04:38:12.572Z,101093.56
2018-11-27T04:40:56.679Z,101090.31
2018-11-27T04:43:25.132Z,101095.97
2018-11-27T04:45:53.563Z,101101.22
2018-11-27T04:48:22.172Z,101096.97
2018-11-27T04:50:53.581Z,101100.10
2018-11-27T04:53:22.004Z,101095.86
2018-11-27T04:55:50.445Z,101104.52
2018-11-27T04:58:18.911Z,101110.47
2018-11-27T05:00:49.623Z,101112.13
2018-11-27T05:03:18.161Z,101110.32
2018-11-27T05:05:46.563Z,101115.28
2018-11-27T05:08:15.036Z,101121.14
2018-11-27T05:10:43.523Z,101125.92
2018-11-27T05:13:11.955Z,101124.18
2018-11-27T05:15:40.646Z,101122.48
2018-11-27T05:18:09.086Z,101120.39
2018-11-27T05:20:37.664Z,101113.06
2018-11-27T05:23:06.911Z,101120.30
2018-11-27T05:25:35.580Z,101116.75
2018-11-27T05:28:04.029Z,101123.26
2018-11-27T05:30:37.675Z,101127.15
2018-11-27T05:33:06.591Z,101125.03
2018-11-27T05:35:35.053Z,101131.55
2018-11-27T05:38:04.276Z,101135.84
2018-11-27T05:40:32.729Z,101126.33
2018-11-27T05:43:03.350Z,101129.77
2018-11-27T05:45:38.718Z,101128.06
2018-11-27T05:48:07.181Z,101127.63
2018-11-27T05:50:39.457Z,101128.92
2018-11-27T05:53:07.949Z,101127.15
2018-11-27T05:55:39.496Z,101130.55
2018-11-27T05:58:07.899Z,101131.81
2018-11-27T06:00:39.193Z,101131.81
2018-11-27T06:06:19.086Z,101137.81
2018-11-27T06:08:47.538Z,101148.17
2018-11-27T06:11:16.030Z,101154.17
2018-11-27T06:13:44.793Z,101157.17
2018-11-27T06:16:13.243Z,101162.35
2018-11-27T06:18:51.065Z,101164.05
2018-11-27T06:21:20.789Z,101165.31
2018-11-27T06:23:49.206Z,101173.08
2018-11-27T06:26:17.730Z,101171.34
2018-11-27T06:28:46.247Z,101183.48
2018-11-27T06:31:14.780Z,101184.38
2018-11-27T06:33:43.526Z,101183.56
2018-11-27T06:36:11.993Z,101181.45
2018-11-27T06:38:40.522Z,101181.94
2018-11-27T06:41:09.138Z,101186.75
2018-11-27T06:43:44.251Z,101192.41
2018-11-27T06:46:12.760Z,101197.63
2018-11-27T06:49:05.728Z,101199.85
2018-11-27T06:51:34.148Z,101210.07
2018-11-27T06:54:02.564Z,101214.09
2018-11-27T06:56:31.124Z,101223.56
2018-11-27T06:59:00.494Z,101226.72
2018-11-27T07:01:28.928Z,101230.61
2018-11-27T07:04:08.714Z,101242.50
2018-11-27T07:06:41.192Z,101246.27
2018-11-27T07:09:10.690Z,101248.00
2018-11-27T07:11:39.101Z,101254.16
2018-11-27T07:14:14.491Z,101245.62
2018-11-27T07:16:43.044Z,101253.16
2018-11-27T07:19:15.640Z,101255.42
2018-11-27T07:21:44.253Z,101257.13
2018-11-27T07:24:12.666Z,101258.73
2018-11-27T07:26:41.158Z,101257.84
2018-11-27T07:29:09.623Z,101256.87
2018-11-27T07:34:50.104Z,101265.81
2018-11-27T07:37:18.552Z,101270.28
2018-11-27T07:39:47.204Z,101261.57
2018-11-27T07:42:19.706Z,101269.42
2018-11-27T07:44:48.343Z,101269.59
2018-11-27T07:47:17.346Z,101272.30
2018-11-27T07:49:48.598Z,101274.05
2018-11-27T07:52:17.039Z,101274.53
2018-11-27T07:54:45.506Z,101277.98
2018-11-27T07:57:18.882Z,101281.13
2018-11-27T07:59:47.591Z,101286.77
2018-11-27T08:02:15.995Z,101290.25
2018-11-27T08:04:44.467Z,101285.99
2018-11-27T08:07:13.034Z,101293.92
2018-11-27T08:09:41.645Z,101296.59
2018-11-27T08:12:10.154Z,101292.30
2018-11-27T08:14:38.777Z,101293.67
2018-11-27T08:17:07.234Z,101301.93
2018-11-27T08:19:36.623Z,101306.72
2018-11-27T08:22:05.786Z,101296.89
2018-11-27T08:24:34.223Z,101296.97
2018-11-27T08:27:03.297Z,101297.75
2018-11-27T08:29:31.714Z,101298.23
2018-11-27T08:32:00.205Z,101304.27
2018-11-27T08:34:28.654Z,101305.16
2018-11-27T08:36:57.107Z,101307.82
2018-11-27T08:39:29.560Z,101309.53
2018-11-27T08:41:58.148Z,101306.19
2018-11-27T08:44:26.611Z,101304.48
2018-11-27T08:46:56.008Z,101310.15
2018-11-27T08:49:24.494Z,101308.07
2018-11-27T08:51:52.988Z,101307.29
2018-11-27T08:54:21.473Z,101304.73
2018-11-27T08:56:50.980Z,101305.68
2018-11-27T08:59:21.312Z,101309.58
2018-11-27T09:01:49.988Z,101312.61
2018-11-27T09:04:18.403Z,101310.02
2018-11-27T09:06:47.010Z,101306.50
2018-11-27T09:09:22.306Z,101310.02
2018-11-27T09:11:50.963Z,101305.68
2018-11-27T09:14:19.616Z,101304.83
2018-11-27T09:16:48.088Z,101303.53
2018-11-27T09:19:16.796Z,101309.16
2018-11-27T09:21:46.134Z,101314.42
2018-11-27T09:24:14.573Z,101319.20
2018-11-27T09:26:43.264Z,101323.16
2018-11-27T09:29:11.699Z,101318.45
2018-11-27T09:31:40.157Z,101327.16
2018-11-27T09:34:13.600Z,101320.73
2018-11-27T09:48:24.800Z,101307.74
2018-11-27T09:56:26.518Z,101315.39
2018-11-27T10:01:39.923Z,101307.34
2018-11-27T10:04:25.182Z,101305.20
2018-11-27T10:06:53.948Z,101312.73
2018-11-27T10:09:35.928Z,101319.34
2018-11-27T10:12:24.967Z,101312.46
2018-11-27T10:17:49.746Z,101307.42
2018-11-27T10:20:29.571Z,101308.36
2018-11-27T10:22:58.030Z,101308.87
2018-11-27T10:25:26.497Z,101315.41
2018-11-27T10:27:55.066Z,101317.20
2018-11-27T10:33:03.321Z,101325.93
2018-11-27T10:35:34.466Z,101329.94
2018-11-27T10:38:03.549Z,101323.91
2018-11-27T10:40:38.506Z,101326.98
2018-11-27T10:43:07.328Z,101327.03
2018-11-27T10:45:42.670Z,101332.69
2018-11-27T10:48:15.115Z,101324.02
2018-11-27T10:50:47.742Z,101323.64
2018-11-27T10:53:16.141Z,101318.03
2018-11-27T10:55:44.576Z,101318.48
2018-11-27T10:58:13.191Z,101318.08
2018-11-27T11:00:47.058Z,101320.27
2018-11-27T11:03:46.017Z,101317.21
2018-11-27T11:06:14.510Z,101324.59
2018-11-27T11:08:48.390Z,101325.45
2018-11-27T11:11:16.898Z,101329.38
2018-11-27T11:13:45.381Z,101330.23
2018-11-27T11:16:14.029Z,101327.17
2018-11-27T11:18:42.451Z,101330.25
2018-11-27T11:21:25.769Z,101331.53
2018-11-27T11:23:54.324Z,101320.70
2018-11-27T11:26:23.196Z,101327.22
2018-11-27T11:28:51.912Z,101334.19
2018-11-27T11:31:24.424Z,101324.63
2018-11-27T11:33:53.087Z,101326.80
2018-11-27T11:36:21.651Z,101327.25
2018-11-27T11:38:59.817Z,101326.81
2018-11-27T11:41:31.273Z,101328.98
2018-11-27T11:43:57.325Z,101333.75
2018-11-27T11:46:25.894Z,101336.34
2018-11-27T11:48:54.304Z,101341.56
2018-11-27T11:51:22.774Z,101345.47
2018-11-27T11:53:51.230Z,101345.01
2018-11-27T11:56:19.855Z,101347.20
2018-11-27T11:58:48.350Z,101340.27
2018-11-27T12:01:20.973Z,101342.03
2018-11-27T12:03:49.700Z,101340.30
2018-11-27T12:06:18.211Z,101339.87
2018-11-27T12:08:46.731Z,101345.50
2018-11-27T12:11:15.352Z,101350.70
2018-11-27T12:13:43.854Z,101356.84
2018-11-27T12:16:13.627Z,101356.84
2018-11-27T12:18:42.069Z,101365.13
2018-11-27T12:21:10.611Z,101365.09
2018-11-27T12:23:39.055Z,101367.24
2018-11-27T12:26:07.767Z,101372.81
2018-11-27T12:28:36.307Z,101372.36
2018-11-27T12:31:05.542Z,101372.77
2018-11-27T12:33:34.071Z,101376.23
2018-11-27T12:36:07.066Z,101378.83
2018-11-27T12:38:35.494Z,101384.02
2018-11-27T12:43:11.888Z,101390.07
2018-11-27T12:45:43.368Z,101388.30
2018-11-27T12:48:11.846Z,101380.05
2018-11-27T12:50:47.413Z,101371.77
2018-11-27T12:53:21.636Z,101366.13
2018-11-27T12:55:56.299Z,101351.41
2018-11-27T12:58:24.854Z,101359.25
2018-11-27T13:00:53.921Z,101356.20
2018-11-27T13:03:22.408Z,101353.59
2018-11-27T13:05:50.889Z,101360.97
2018-11-27T13:08:20.815Z,101363.55
2018-11-27T13:11:04.001Z,101367.86
2018-11-27T13:13:32.601Z,101368.23
2018-11-27T13:16:07.112Z,101360.88
2018-11-27T13:18:35.611Z,101361.75
2018-11-27T13:21:04.380Z,101359.58
2018-11-27T13:23:32.862Z,101361.30
2018-11-27T13:26:01.331Z,101357.41
2018-11-27T13:28:29.724Z,101353.94
2018-11-27T13:31:02.347Z,101349.63
2018-11-27T13:33:32.972Z,101353.53
2018-11-27T13:36:01.529Z,101364.81
2018-11-27T13:38:30.282Z,101370.44
2018-11-27T13:41:03.153Z,101373.91
2018-11-27T13:43:31.632Z,101373.47
2018-11-27T13:46:01.377Z,101371.73
2018-11-27T13:51:25.340Z,101379.08
2018-11-27T14:02:26.489Z,101389.81
2018-11-27T14:30:26.592Z,101400.06
2018-11-27T14:55:25.069Z,101393.00
2018-11-27T15:06:27.536Z,101391.91
2018-11-27T15:14:27.637Z,101399.48
2018-11-27T15:16:56.147Z,101408.12
2018-11-27T15:19:27.597Z,101404.58
2018-11-27T15:21:56.082Z,101397.20
2018-11-27T15:27:10.729Z,101395.84
2018-11-27T15:29:39.319Z,101390.15
2018-11-27T15:32:10.833Z,101387.08
2018-11-27T15:34:39.261Z,101385.25
2018-11-27T15:37:12.071Z,101380.45
2018-11-27T15:39:40.756Z,101381.72
2018-11-27T15:42:19.798Z,101369.41
2018-11-27T15:44:48.258Z,101390.23
2018-11-27T15:47:17.975Z,101393.19
2018-11-27T15:49:46.542Z,101398.80
2018-11-27T15:52:19.510Z,101400.06
2018-11-27T15:54:48.100Z,101394.83
2018-11-27T15:57:16.623Z,101405.23
2018-11-27T15:59:45.070Z,101406.11
2018-11-27T16:02:13.599Z,101401.33
2018-11-27T16:09:01.384Z,101396.58
2018-11-27T16:14:03.926Z,101421.20
2018-11-27T16:16:38.446Z,101419.52
2018-11-27T16:19:07.285Z,101423.92
2018-11-27T16:21:35.915Z,101410.52
2018-11-27T16:24:04.445Z,101416.59
2018-11-27T16:26:33.036Z,101408.80
2018-11-27T16:29:01.607Z,101416.19
2018-11-27T16:32:33.395Z,101416.16
2018-11-27T16:35:01.876Z,101415.20
2018-11-27T16:37:37.303Z,101409.13
2018-11-27T16:40:15.509Z,101409.50
2018-11-27T16:42:44.121Z,101409.00
2018-11-27T16:45:15.125Z,101405.00
2018-11-27T16:47:44.074Z,101414.09
2018-11-27T16:50:13.745Z,101411.94
2018-11-27T16:52:42.467Z,101413.30
2018-11-27T16:55:12.251Z,101418.53
2018-11-27T16:57:40.845Z,101419.39
2018-11-27T17:00:25.526Z,101420.24
2018-11-27T17:02:56.491Z,101427.15
2018-11-27T17:05:28.447Z,101424.08
2018-11-27T17:07:57.308Z,101422.33
2018-11-27T17:10:25.803Z,101418.02
2018-11-27T17:12:55.834Z,101414.57
2018-11-27T17:15:25.655Z,101421.95
2018-11-27T17:17:54.399Z,101425.41
2018-11-27T17:20:26.779Z,101430.16
2018-11-27T17:22:56.227Z,101427.11
2018-11-27T17:25:29.836Z,101421.92
2018-11-27T17:28:00.980Z,101410.23
2018-11-27T17:30:38.140Z,101414.54
2018-11-27T17:33:17.922Z,101418.81
2018-11-27T17:35:50.500Z,101412.63
2018-11-27T17:38:18.993Z,101414.74
2018-11-27T17:40:47.516Z,101421.17
2018-11-27T17:43:15.995Z,101417.64
2018-11-27T17:45:44.452Z,101418.47
2018-11-27T17:48:13.045Z,101421.91
2018-11-27T17:50:41.578Z,101421.02
2018-11-27T17:53:10.273Z,101420.95
2018-11-27T17:55:42.511Z,101422.17
2018-11-27T17:58:11.277Z,101422.06
2018-11-27T18:00:39.775Z,101423.33
2018-11-27T18:03:09.721Z,101416.35
2018-11-27T18:05:40.357Z,101414.13
2018-11-27T18:08:08.865Z,101411.94
2018-11-27T18:21:28.491Z,101419.45
2018-11-27T18:23:56.992Z,101422.00
2018-11-27T18:26:26.114Z,101418.06
2018-11-27T18:28:54.805Z,101422.37
2018-11-27T18:31:36.767Z,101418.88
2018-11-27T18:34:05.670Z,101414.51
2018-11-27T18:36:34.152Z,101416.20
2018-11-27T18:39:03.009Z,101417.47
2018-11-27T18:41:31.914Z,101423.09
2018-11-27T18:44:00.387Z,101422.61
2018-11-27T18:46:30.984Z,101428.61
2018-11-27T18:48:59.605Z,101428.52
2018-11-27T18:51:28.298Z,101422.00
2018-11-27T18:53:56.984Z,101412.02
2018-11-27T18:56:25.591Z,101416.32
2018-11-27T18:58:58.360Z,101414.58
2018-11-27T19:01:27.024Z,101424.01
2018-11-27T19:03:55.684Z,101417.48
2018-11-27T19:06:25.041Z,101414.41
2018-11-27T19:08:53.576Z,101426.06
2018-11-27T19:11:22.051Z,101425.05
2018-11-27T19:13:57.319Z,101438.00
2018-11-27T19:16:25.759Z,101434.96
2018-11-27T19:18:54.700Z,101442.30
2018-11-27T19:21:23.384Z,101441.84
2018-11-27T19:23:52.042Z,101437.47
2018-11-27T19:26:20.559Z,101437.45
2018-11-27T19:29:12.404Z,101438.71
2018-11-27T19:31:41.244Z,101436.52
2018-11-27T19:34:16.258Z,101435.62
2018-11-27T19:36:44.821Z,101426.95
2018-11-27T19:39:13.631Z,101425.66
2018-11-27T19:41:42.126Z,101424.80
2018-11-27T19:44:17.179Z,101429.95
2018-11-27T19:46:45.660Z,101423.42
2018-11-27T19:49:14.315Z,101430.25
2018-11-27T19:51:43.379Z,101431.05
2018-11-27T19:54:12.339Z,101427.97
2018-11-27T19:56:41.046Z,101427.47
2018-11-27T19:59:10.434Z,101436.48
2018-11-27T20:01:44.416Z,101436.39
2018-11-27T20:04:13.153Z,101431.16
2018-11-27T20:09:35.413Z,101422.45
2018-11-27T20:12:08.852Z,101431.06
2018-11-27T20:14:42.594Z,101422.41
2018-11-27T20:17:14.247Z,101429.77
2018-11-27T20:19:43.013Z,101429.38
2018-11-27T20:22:11.476Z,101425.94
2018-11-27T20:24:51.764Z,101432.45
2018-11-27T20:27:20.372Z,101432.37
2018-11-27T20:29:49.824Z,101430.56
2018-11-27T20:32:23.709Z,101439.23
2018-11-27T20:34:52.244Z,101428.08
2018-11-27T20:37:27.232Z,101433.77
2018-11-27T20:39:55.994Z,101432.47
2018-11-27T20:42:24.558Z,101431.17
2018-11-27T20:44:54.735Z,101434.69
2018-11-27T20:47:22.164Z,101439.88
2018-11-27T20:49:50.671Z,101446.86
2018-11-27T20:52:19.294Z,101442.12
2018-11-27T20:55:19.319Z,101438.69
2018-11-27T20:57:55.761Z,101439.13
2018-11-27T21:00:28.051Z,101440.37
2018-11-27T21:02:58.415Z,101436.39
2018-11-27T21:05:27.038Z,101436.69
2018-11-27T21:07:55.749Z,101441.77
2018-11-27T21:10:24.393Z,101434.36
2018-11-27T21:12:53.193Z,101432.96
2018-11-27T21:18:14.486Z,101436.59
2018-11-27T21:20:44.105Z,101440.85
2018-11-27T21:23:12.965Z,101438.67
2018-11-27T21:25:41.934Z,101437.78
2018-11-27T21:28:13.904Z,101436.42
2018-11-27T21:30:42.948Z,101440.20
2018-11-27T21:33:11.681Z,101439.75
2018-11-27T21:35:40.205Z,101432.34
2018-11-27T21:38:10.227Z,101435.81
2018-11-27T21:40:44.164Z,101447.36
2018-11-27T21:43:12.981Z,101454.17
2018-11-27T21:45:47.173Z,101446.80
2018-11-27T21:48:15.754Z,101441.56
2018-11-27T21:50:44.909Z,101441.11
2018-11-27T21:53:13.559Z,101441.45
2018-11-27T21:55:42.696Z,101439.66
2018-11-27T21:58:11.321Z,101437.02
2018-11-27T22:00:41.437Z,101437.80
2018-11-27T22:03:10.858Z,101443.37
2018-11-27T22:05:43.475Z,101438.91
2018-11-27T22:08:12.103Z,101432.80
2018-11-27T22:10:45.898Z,101435.83
2018-11-27T22:13:15.918Z,101438.41
2018-11-27T22:15:45.384Z,101437.52
2018-11-27T22:18:14.564Z,101438.80
2018-11-27T22:20:43.143Z,101440.88
2018-11-27T22:23:14.646Z,101442.97
2018-11-27T22:25:43.244Z,101439.88
2018-11-27T22:28:14.666Z,101437.28
2018-11-27T22:33:42.245Z,101438.58
2018-11-27T22:36:10.743Z,101437.69
2018-11-27T22:38:39.433Z,101435.53
2018-11-27T22:41:08.023Z,101435.48
2018-11-27T22:43:36.700Z,101434.58
2018-11-27T22:46:05.213Z,101437.11
2018-11-27T22:48:43.606Z,101440.52
2018-11-27T22:51:12.817Z,101439.23
2018-11-27T22:53:46.596Z,101436.09
2018-11-27T22:56:15.306Z,101438.21
2018-11-27T22:58:47.142Z,101440.36
2018-11-27T23:01:15.628Z,101444.19
2018-11-27T23:03:44.217Z,101447.16
2018-11-27T23:06:12.889Z,101441.59
2018-11-27T23:08:42.402Z,101444.56
2018-11-27T23:11:12.284Z,101437.64
2018-11-27T23:13:40.829Z,101438.05
2018-11-27T23:16:09.370Z,101438.83
2018-11-27T23:18:37.933Z,101437.91
2018-11-27T23:21:09.607Z,101440.84
2018-11-27T23:23:38.111Z,101439.98
2018-11-27T23:26:06.689Z,101441.67
2018-11-27T23:28:35.139Z,101430.88
2018-11-27T23:31:04.923Z,101428.69
2018-11-27T23:33:35.146Z,101423.47
2018-11-27T23:36:03.627Z,101416.94
2018-11-27T23:38:32.057Z,101417.72
2018-11-27T23:41:00.485Z,101410.80
2018-11-27T23:43:29.322Z,101410.34
2018-11-27T23:45:57.794Z,101406.81
2018-11-27T23:48:26.290Z,101401.64
2018-11-27T23:50:55.183Z,101398.25
2018-11-27T23:53:23.587Z,101402.53
2018-11-27T23:55:52.645Z,101396.07
2018-11-27T23:58:24.291Z,101395.16
